createdAt,value
2023-04-21T00:01:17.630Z,42.33
2023-04-21T00:03:46.576Z,37.33
2023-04-21T00:06:14.817Z,39.67
2023-04-21T00:08:42.496Z,36.17
2023-04-21T00:11:10.036Z,43.70
2023-04-21T00:13:38.733Z,48.30
2023-04-21T00:16:06.483Z,50.97
2023-04-21T00:18:33.986Z,49.97
2023-04-21T00:21:01.779Z,42.30
2023-04-21T00:23:29.177Z,39.60
2023-04-21T00:25:56.582Z,41.00
2023-04-21T00:28:23.986Z,38.90
2023-04-21T00:30:51.397Z,38.60
2023-04-21T00:33:18.767Z,32.20
2023-04-21T00:35:46.194Z,32.00
2023-04-21T00:38:13.576Z,31.40
2023-04-21T00:40:40.968Z,26.90
2023-04-21T00:43:08.687Z,28.60
2023-04-21T00:45:36.188Z,33.27
2023-04-21T00:48:03.733Z,31.97
2023-04-21T00:50:31.559Z,27.53
2023-04-21T00:52:59.013Z,27.10
2023-04-21T00:55:26.511Z,27.53
2023-04-21T00:57:54.180Z,26.90
2023-04-21T01:00:21.566Z,26.87
2023-04-21T01:02:49.130Z,27.50
2023-04-21T01:05:17.961Z,24.57
2023-04-21T01:07:45.908Z,26.73
2023-04-21T01:10:13.250Z,26.80
2023-04-21T01:12:45.039Z,26.47
2023-04-21T01:15:13.992Z,29.53
2023-04-21T01:17:41.497Z,29.17
2023-04-21T01:20:10.594Z,31.57
2023-04-21T01:22:43.084Z,30.93
2023-04-21T01:25:10.576Z,31.60
2023-04-21T01:27:38.024Z,31.90
2023-04-21T01:30:05.871Z,30.10
2023-04-21T01:32:33.694Z,31.60
2023-04-21T01:35:01.349Z,32.00
2023-04-21T01:37:30.498Z,30.10
2023-04-21T01:39:58.818Z,31.00
2023-04-21T01:42:27.769Z,25.90
2023-04-21T01:44:55.442Z,28.83
2023-04-21T01:47:23.730Z,31.57
2023-04-21T01:49:51.142Z,30.97
2023-04-21T01:52:18.594Z,29.00
2023-04-21T01:54:46.049Z,31.40
2023-04-21T01:57:13.583Z,34.97
2023-04-21T01:59:41.140Z,30.10
2023-04-21T02:02:08.838Z,28.90
2023-04-21T02:04:36.790Z,29.10
2023-04-21T02:07:04.201Z,30.73
2023-04-21T02:09:32.320Z,30.87
2023-04-21T02:12:00.255Z,31.07
2023-04-21T02:14:27.843Z,28.77
2023-04-21T02:16:56.107Z,30.30
2023-04-21T02:19:23.995Z,30.43
2023-04-21T02:21:51.382Z,27.60
2023-04-21T02:24:18.923Z,27.73
2023-04-21T02:26:46.350Z,27.70
2023-04-21T02:29:13.781Z,27.40
2023-04-21T02:31:53.842Z,29.20
2023-04-21T02:34:10.520Z,28.83
2023-04-21T02:36:37.908Z,25.80
2023-04-21T02:39:05.253Z,24.77
2023-04-21T02:41:32.599Z,24.13
2023-04-21T02:44:00.012Z,25.90
2023-04-21T02:46:27.437Z,26.23
2023-04-21T02:48:55.078Z,24.90
2023-04-21T02:51:22.549Z,26.57
2023-04-21T02:53:49.968Z,25.20
2023-04-21T02:56:17.394Z,26.63
2023-04-21T02:58:44.807Z,25.50
2023-04-21T03:01:12.246Z,26.00
2023-04-21T03:03:39.755Z,25.73
2023-04-21T03:06:07.386Z,26.97
2023-04-21T03:08:34.847Z,25.00
2023-04-21T03:11:02.263Z,28.40
2023-04-21T03:13:29.655Z,26.90
2023-04-21T03:15:57.361Z,26.53
2023-04-21T03:18:24.808Z,24.87
2023-04-21T03:20:52.211Z,26.20
2023-04-21T03:23:19.605Z,25.33
2023-04-21T03:25:46.955Z,27.13
2023-04-21T03:28:15.717Z,23.97
2023-04-21T03:30:43.162Z,22.00
2023-04-21T03:33:10.613Z,22.60
2023-04-21T03:35:37.997Z,20.70
2023-04-21T03:38:05.437Z,23.50
2023-04-21T03:40:32.823Z,20.00
2023-04-21T03:43:00.411Z,21.27
2023-04-21T03:45:27.842Z,20.73
2023-04-21T03:47:55.591Z,21.47
2023-04-21T03:50:23.460Z,23.63
2023-04-21T03:52:50.915Z,20.80
2023-04-21T03:55:18.334Z,20.40
2023-04-21T03:57:45.819Z,22.63
2023-04-21T04:00:13.726Z,24.50
2023-04-21T04:02:41.394Z,24.60
2023-04-21T04:05:09.109Z,29.03
2023-04-21T04:07:36.500Z,28.20
2023-04-21T04:10:04.256Z,24.40
2023-04-21T04:12:31.665Z,24.43
2023-04-21T04:14:59.079Z,35.00
2023-04-21T04:17:26.635Z,43.13
2023-04-21T04:19:54.025Z,31.70
2023-04-21T04:22:21.484Z,30.23
2023-04-21T04:24:48.897Z,31.03
2023-04-21T04:27:16.542Z,33.30
2023-04-21T04:29:45.602Z,33.77
2023-04-21T04:32:14.660Z,39.73
2023-04-21T04:34:42.065Z,37.90
2023-04-21T04:37:10.846Z,39.70
2023-04-21T04:39:38.257Z,30.03
2023-04-21T04:42:11.632Z,26.23
2023-04-21T04:44:40.755Z,29.00
2023-04-21T04:47:08.217Z,30.50
2023-04-21T04:49:35.613Z,25.90
2023-04-21T04:52:03.079Z,21.30
2023-04-21T04:54:30.478Z,25.60
2023-04-21T04:56:58.614Z,24.97
2023-04-21T04:59:26.299Z,32.60
2023-04-21T05:01:54.408Z,29.90
2023-04-21T05:04:21.918Z,31.90
2023-04-21T05:06:49.809Z,36.40
2023-04-21T05:09:17.230Z,43.47
2023-04-21T05:11:44.644Z,37.47
2023-04-21T05:14:12.090Z,35.47
2023-04-21T05:16:39.753Z,28.77
2023-04-21T05:19:07.195Z,30.83
2023-04-21T05:21:34.597Z,28.33
2023-04-21T05:24:02.071Z,28.90
2023-04-21T05:26:30.075Z,30.73
2023-04-21T05:28:57.864Z,27.53
2023-04-21T05:31:25.788Z,27.00
2023-04-21T05:33:53.226Z,28.30
2023-04-21T05:36:20.628Z,27.77
2023-04-21T05:38:48.093Z,25.60
2023-04-21T05:41:15.931Z,26.33
2023-04-21T05:43:43.495Z,38.23
2023-04-21T05:46:13.984Z,38.50
2023-04-21T05:48:41.512Z,32.53
2023-04-21T05:51:12.359Z,33.70
2023-04-21T05:53:40.144Z,30.43
2023-04-21T05:56:09.412Z,31.67
2023-04-21T05:58:37.193Z,25.53
2023-04-21T06:01:05.155Z,29.77
2023-04-21T06:03:32.749Z,27.90
2023-04-21T06:06:01.021Z,21.90
2023-04-21T06:08:28.473Z,24.10
2023-04-21T06:10:55.891Z,22.63
2023-04-21T06:13:23.270Z,22.13
2023-04-21T06:15:50.640Z,21.00
2023-04-21T06:18:18.049Z,20.43
2023-04-21T06:20:52.029Z,21.10
2023-04-21T06:23:19.438Z,21.63
2023-04-21T06:25:46.838Z,23.73
2023-04-21T06:28:14.228Z,26.20
2023-04-21T06:30:41.631Z,24.70
2023-04-21T06:33:09.365Z,21.37
2023-04-21T06:35:36.836Z,24.63
2023-04-21T06:38:04.269Z,26.50
2023-04-21T06:40:31.668Z,26.90
2023-04-21T06:42:59.098Z,23.43
2023-04-21T06:45:26.503Z,25.67
2023-04-21T06:47:53.933Z,22.90
2023-04-21T06:50:21.277Z,23.70
2023-04-21T06:52:48.657Z,21.10
2023-04-21T06:55:16.115Z,23.80
2023-04-21T06:57:43.626Z,24.70
2023-04-21T07:00:11.558Z,25.43
2023-04-21T07:02:39.133Z,23.27
2023-04-21T07:05:06.684Z,22.53
2023-04-21T07:07:34.295Z,26.40
2023-04-21T07:10:01.710Z,29.90
2023-04-21T07:12:29.145Z,31.53
2023-04-21T07:14:56.544Z,29.10
2023-04-21T07:17:24.037Z,31.13
2023-04-21T07:19:51.432Z,29.87
2023-04-21T07:22:18.842Z,32.10
2023-04-21T07:24:46.436Z,31.60
2023-04-21T07:27:14.528Z,29.93
2023-04-21T07:29:41.942Z,28.63
2023-04-21T07:32:09.354Z,23.03
2023-04-21T07:34:36.744Z,17.17
2023-04-21T07:37:04.156Z,20.13
2023-04-21T07:39:31.566Z,17.40
2023-04-21T07:41:58.962Z,19.40
2023-04-21T07:44:26.353Z,17.87
2023-04-21T07:46:53.697Z,17.50
2023-04-21T07:49:21.368Z,19.07
2023-04-21T07:51:48.908Z,20.97
2023-04-21T07:54:16.307Z,21.53
2023-04-21T07:56:43.717Z,23.30
2023-04-21T07:59:11.199Z,22.23
2023-04-21T08:01:38.597Z,23.53
2023-04-21T08:04:06.556Z,24.73
2023-04-21T08:06:33.989Z,24.50
2023-04-21T08:09:01.468Z,23.80
2023-04-21T08:11:28.885Z,23.40
2023-04-21T08:13:57.463Z,25.80
2023-04-21T08:16:24.895Z,25.57
2023-04-21T08:18:52.341Z,24.50
2023-04-21T08:21:19.796Z,27.27
2023-04-21T08:23:47.243Z,26.50
2023-04-21T08:26:15.591Z,25.90
2023-04-21T08:28:42.924Z,25.50
2023-04-21T08:31:10.407Z,25.53
2023-04-21T08:33:43.845Z,26.30
2023-04-21T08:36:15.200Z,26.90
2023-04-21T08:38:35.821Z,24.40
2023-04-21T08:41:04.042Z,27.13
2023-04-21T08:43:31.428Z,25.90
2023-04-21T08:46:00.254Z,26.87
2023-04-21T08:48:28.533Z,28.20
2023-04-21T08:50:55.846Z,27.27
2023-04-21T08:53:23.241Z,26.10
2023-04-21T08:56:03.220Z,25.37
2023-04-21T08:58:22.664Z,25.17
2023-04-21T09:00:50.788Z,26.20
2023-04-21T09:03:26.257Z,27.40
2023-04-21T09:06:06.286Z,25.53
2023-04-21T09:08:34.459Z,27.83
2023-04-21T09:11:01.936Z,26.40
2023-04-21T09:13:33.569Z,24.10
2023-04-21T09:16:01.652Z,23.83
2023-04-21T09:18:31.874Z,23.23
2023-04-21T09:21:06.729Z,23.30
2023-04-21T09:23:35.638Z,24.03
2023-04-21T09:26:03.672Z,23.17
2023-04-21T09:28:32.734Z,22.70
2023-04-21T09:31:00.217Z,22.43
2023-04-21T09:33:34.298Z,22.80
2023-04-21T09:35:56.650Z,21.30
2023-04-21T09:38:24.058Z,21.17
2023-04-21T09:41:01.203Z,22.93
2023-04-21T09:43:28.647Z,22.77
2023-04-21T09:45:56.584Z,22.20
2023-04-21T09:48:25.982Z,20.97
2023-04-21T09:51:22.770Z,20.40
2023-04-21T09:53:25.666Z,21.17
2023-04-21T09:55:56.306Z,21.33
2023-04-21T09:58:24.572Z,20.60
2023-04-21T10:00:52.552Z,18.87
2023-04-21T10:03:22.587Z,19.57
2023-04-21T10:05:50.402Z,18.10
2023-04-21T10:08:17.808Z,19.07
2023-04-21T10:10:45.650Z,20.27
2023-04-21T10:13:17.815Z,18.27
2023-04-21T10:15:45.250Z,18.87
2023-04-21T10:18:25.137Z,18.10
2023-04-21T10:21:08.843Z,17.70
2023-04-21T10:23:39.946Z,17.40
2023-04-21T10:26:08.907Z,17.53
2023-04-21T10:28:43.633Z,16.70
2023-04-21T10:31:20.899Z,19.93
2023-04-21T10:34:07.042Z,17.77
2023-04-21T10:36:35.971Z,15.90
2023-04-21T10:39:03.752Z,16.10
2023-04-21T10:41:32.356Z,15.70
2023-04-21T10:44:01.320Z,18.37
2023-04-21T10:46:35.330Z,18.03
2023-04-21T10:49:12.913Z,16.20
2023-04-21T10:52:00.495Z,16.90
2023-04-21T10:54:28.802Z,19.33
2023-04-21T10:56:57.087Z,18.17
2023-04-21T10:59:24.975Z,20.23
2023-04-21T11:01:52.800Z,22.03
2023-04-21T11:04:21.653Z,19.30
2023-04-21T11:07:09.150Z,18.50
2023-04-21T11:09:37.309Z,19.20
2023-04-21T11:12:07.296Z,19.27
2023-04-21T11:14:36.547Z,18.80
2023-04-21T11:17:08.626Z,19.53
2023-04-21T11:19:36.023Z,19.07
2023-04-21T11:22:04.394Z,19.43
2023-04-21T11:24:32.258Z,18.23
2023-04-21T11:27:01.554Z,19.50
2023-04-21T11:29:32.035Z,18.80
2023-04-21T11:31:59.428Z,19.30
2023-04-21T11:34:27.026Z,18.87
2023-04-21T11:36:55.548Z,18.53
2023-04-21T11:39:22.885Z,18.43
2023-04-21T11:41:50.981Z,18.77
2023-04-21T11:44:34.659Z,18.57
2023-04-21T11:47:03.565Z,17.23
2023-04-21T11:49:32.160Z,19.20
2023-04-21T11:51:59.585Z,18.17
2023-04-21T11:54:28.561Z,18.20
2023-04-21T11:56:55.952Z,18.73
2023-04-21T11:59:25.976Z,19.17
2023-04-21T12:01:55.262Z,20.07
2023-04-21T12:04:24.373Z,19.63
2023-04-21T12:06:59.029Z,16.83
2023-04-21T12:09:26.833Z,18.20
2023-04-21T12:11:55.131Z,16.50
2023-04-21T12:14:23.490Z,16.63
2023-04-21T12:16:54.887Z,15.57
2023-04-21T12:19:26.822Z,15.67
2023-04-21T12:21:56.201Z,15.20
2023-04-21T12:24:23.595Z,15.90
2023-04-21T12:26:51.072Z,15.40
2023-04-21T12:29:18.539Z,16.33
2023-04-21T12:31:46.023Z,17.43
2023-04-21T12:34:13.580Z,14.80
2023-04-21T12:36:40.982Z,15.27
2023-04-21T12:39:08.367Z,15.10
2023-04-21T12:41:35.768Z,14.93
2023-04-21T12:44:03.218Z,16.17
2023-04-21T12:46:30.743Z,14.13
2023-04-21T12:48:58.118Z,16.07
2023-04-21T12:51:26.010Z,14.83
2023-04-21T12:53:53.409Z,16.40
2023-04-21T12:56:20.900Z,14.77
2023-04-21T12:58:48.320Z,15.53
2023-04-21T13:01:16.030Z,15.17
2023-04-21T13:03:43.514Z,15.27
2023-04-21T13:06:11.389Z,16.10
2023-04-21T13:08:38.808Z,16.10
2023-04-21T13:11:06.302Z,15.97
2023-04-21T13:13:33.818Z,16.23
2023-04-21T13:16:01.192Z,17.27
2023-04-21T13:18:28.608Z,16.90
2023-04-21T13:20:56.006Z,16.60
2023-04-21T13:23:23.414Z,16.40
2023-04-21T13:25:51.714Z,16.60
2023-04-21T13:28:19.856Z,16.00
2023-04-21T13:30:47.417Z,15.50
2023-04-21T13:33:14.920Z,17.20
2023-04-21T13:35:42.416Z,17.47
2023-04-21T13:38:09.903Z,18.90
2023-04-21T13:40:37.338Z,17.43
2023-04-21T13:43:05.101Z,16.37
2023-04-21T13:45:32.517Z,15.50
2023-04-21T13:48:00.169Z,14.07
2023-04-21T13:50:27.720Z,16.53
2023-04-21T13:52:55.104Z,14.47
2023-04-21T13:55:22.576Z,15.00
2023-04-21T13:57:50.098Z,15.60
2023-04-21T14:00:17.896Z,14.97
2023-04-21T14:02:45.522Z,15.13
2023-04-21T14:05:13.180Z,14.27
2023-04-21T14:07:40.675Z,14.80
2023-04-21T14:10:08.238Z,13.73
2023-04-21T14:12:35.724Z,13.00
2023-04-21T14:15:03.095Z,13.27
2023-04-21T14:17:30.564Z,13.30
2023-04-21T14:19:57.955Z,14.70
2023-04-21T14:22:25.374Z,13.50
2023-04-21T14:24:52.812Z,14.40
2023-04-21T14:27:20.218Z,14.60
2023-04-21T14:29:47.586Z,14.70
2023-04-21T14:32:15.103Z,13.97
2023-04-21T14:34:42.599Z,15.20
2023-04-21T14:37:10.267Z,12.87
2023-04-21T14:39:37.744Z,11.10
2023-04-21T14:42:05.907Z,11.37
2023-04-21T14:44:34.926Z,10.00
2023-04-21T14:47:09.781Z,11.43
2023-04-21T14:49:31.435Z,11.93
2023-04-21T14:51:58.986Z,13.00
2023-04-21T14:54:26.459Z,11.47
2023-04-21T14:57:03.421Z,11.80
2023-04-21T14:59:22.968Z,11.73
2023-04-21T15:01:50.578Z,11.70
2023-04-21T15:04:18.180Z,11.73
2023-04-21T15:06:45.603Z,12.00
2023-04-21T15:09:13.956Z,11.90
2023-04-21T15:11:41.420Z,11.30
2023-04-21T15:14:08.774Z,12.10
2023-04-21T15:16:36.661Z,12.70
2023-04-21T15:19:04.009Z,10.63
2023-04-21T15:21:32.446Z,11.40
2023-04-21T15:23:59.861Z,10.93
2023-04-21T15:26:28.866Z,11.00
2023-04-21T15:28:57.203Z,11.20
2023-04-21T15:31:24.637Z,9.97
2023-04-21T15:33:52.203Z,11.13
2023-04-21T15:36:19.632Z,9.30
2023-04-21T15:38:46.952Z,9.63
2023-04-21T15:41:16.096Z,9.40
2023-04-21T15:43:43.412Z,9.33
2023-04-21T15:46:12.483Z,10.07
2023-04-21T15:48:41.061Z,10.20
2023-04-21T15:51:11.376Z,10.30
2023-04-21T15:53:40.374Z,9.70
2023-04-21T15:56:07.826Z,9.70
2023-04-21T15:58:35.331Z,10.70
2023-04-21T16:01:03.009Z,9.13
2023-04-21T16:03:30.512Z,10.30
2023-04-21T16:05:58.147Z,10.03
2023-04-21T16:08:25.801Z,8.63
2023-04-21T16:10:53.208Z,8.20
2023-04-21T16:13:20.672Z,7.87
2023-04-21T16:15:48.096Z,8.33
2023-04-21T16:18:15.673Z,8.07
2023-04-21T16:20:44.795Z,9.10
2023-04-21T16:23:12.881Z,7.63
2023-04-21T16:25:40.447Z,9.33
2023-04-21T16:28:09.048Z,9.30
2023-04-21T16:30:38.142Z,9.73
2023-04-21T16:33:05.544Z,8.50
2023-04-21T16:35:32.972Z,7.63
2023-04-21T16:38:00.459Z,9.70
2023-04-21T16:40:27.886Z,8.90
2023-04-21T16:42:55.261Z,10.10
2023-04-21T16:45:22.677Z,8.67
2023-04-21T16:47:50.092Z,9.20
2023-04-21T16:50:17.578Z,10.27
2023-04-21T16:52:44.985Z,10.03
2023-04-21T16:55:12.342Z,10.00
2023-04-21T16:57:39.725Z,10.20
2023-04-21T17:00:08.366Z,9.90
2023-04-21T17:02:35.900Z,11.07
2023-04-21T17:05:03.896Z,11.13
2023-04-21T17:07:34.073Z,10.20
2023-04-21T17:10:02.237Z,9.10
2023-04-21T17:12:29.680Z,8.80
2023-04-21T17:14:57.070Z,9.93
2023-04-21T17:17:24.451Z,8.23
2023-04-21T17:19:54.028Z,9.87
2023-04-21T17:22:21.562Z,8.17
2023-04-21T17:24:53.656Z,8.93
2023-04-21T17:27:17.895Z,8.10
2023-04-21T17:29:45.284Z,9.30
2023-04-21T17:32:12.759Z,8.80
2023-04-21T17:34:40.410Z,7.87
2023-04-21T17:37:07.996Z,8.50
2023-04-21T17:39:35.365Z,8.50
2023-04-21T17:42:02.974Z,8.70
2023-04-21T17:44:30.513Z,8.23
2023-04-21T17:46:58.005Z,9.40
2023-04-21T17:49:25.519Z,9.53
2023-04-21T17:51:53.103Z,8.47
2023-04-21T17:54:20.641Z,8.30
2023-04-21T17:56:48.025Z,8.83
2023-04-21T17:59:15.507Z,8.40
2023-04-21T18:01:42.898Z,8.13
2023-04-21T18:04:10.556Z,7.70
2023-04-21T18:06:38.018Z,5.60
2023-04-21T18:09:05.466Z,3.90
2023-04-21T18:11:32.847Z,3.60
2023-04-21T18:14:00.408Z,2.80
2023-04-21T18:16:27.830Z,3.67
2023-04-21T18:18:55.678Z,3.10
2023-04-21T18:21:23.068Z,3.50
2023-04-21T18:23:50.404Z,3.67
2023-04-21T18:26:17.782Z,3.47
2023-04-21T18:28:45.832Z,3.93
2023-04-21T18:31:13.383Z,3.87
2023-04-21T18:33:40.761Z,3.90
2023-04-21T18:36:08.215Z,8.53
2023-04-21T18:38:35.610Z,4.83
2023-04-21T18:41:03.000Z,4.80
2023-04-21T18:43:31.060Z,5.30
2023-04-21T18:45:58.453Z,8.20
2023-04-21T18:48:26.103Z,6.50
2023-04-21T18:50:53.505Z,5.30
2023-04-21T18:53:20.968Z,5.60
2023-04-21T18:55:48.372Z,5.30
2023-04-21T18:58:16.080Z,5.43
2023-04-21T19:00:43.529Z,5.70
2023-04-21T19:03:11.357Z,5.50
2023-04-21T19:05:40.238Z,6.50
2023-04-21T19:08:09.547Z,6.00
2023-04-21T19:10:37.702Z,5.30
2023-04-21T19:13:05.341Z,5.90
2023-04-21T19:15:33.259Z,6.30
2023-04-21T19:18:00.923Z,4.70
2023-04-21T19:20:29.088Z,5.70
2023-04-21T19:22:56.454Z,4.40
2023-04-21T19:25:23.770Z,4.40
2023-04-21T19:27:51.307Z,5.43
2023-04-21T19:30:18.631Z,5.10
2023-04-21T19:32:46.097Z,4.77
2023-04-21T19:35:13.502Z,4.57
2023-04-21T19:37:40.876Z,5.30
2023-04-21T19:40:09.149Z,5.07
2023-04-21T19:42:38.871Z,4.10
2023-04-21T19:45:08.446Z,5.53
2023-04-21T19:47:38.736Z,5.33
2023-04-21T19:50:07.738Z,4.53
2023-04-21T19:52:35.261Z,4.43
2023-04-21T19:55:03.431Z,5.07
2023-04-21T19:57:30.872Z,4.33
2023-04-21T19:59:58.179Z,4.33
2023-04-21T20:02:26.619Z,4.20
2023-04-21T20:04:54.246Z,4.07
2023-04-21T20:07:22.307Z,3.77
2023-04-21T20:09:49.694Z,4.37
2023-04-21T20:12:16.997Z,3.50
2023-04-21T20:14:44.373Z,3.50
2023-04-21T20:17:11.665Z,3.50
2023-04-21T20:19:40.440Z,3.97
2023-04-21T20:22:08.091Z,3.77
2023-04-21T20:24:35.460Z,3.77
2023-04-21T20:27:02.973Z,3.93
2023-04-21T20:29:30.893Z,3.87
2023-04-21T20:31:58.359Z,3.60
2023-04-21T20:34:26.007Z,3.53
2023-04-21T20:36:54.368Z,3.70
2023-04-21T20:39:22.613Z,3.70
2023-04-21T20:42:00.879Z,3.17
2023-04-21T20:44:21.237Z,3.47
2023-04-21T20:46:48.597Z,3.90
2023-04-21T20:49:15.995Z,3.00
2023-04-21T20:51:43.404Z,3.70
2023-04-21T20:54:10.768Z,3.47
2023-04-21T20:56:38.188Z,3.57
2023-04-21T20:59:05.605Z,3.40
2023-04-21T21:01:34.593Z,3.80
2023-04-21T21:04:02.341Z,3.00
2023-04-21T21:06:30.586Z,3.27
2023-04-21T21:08:57.961Z,2.87
2023-04-21T21:11:25.425Z,2.80
2023-04-21T21:13:52.785Z,3.20
2023-04-21T21:16:20.663Z,2.90
2023-04-21T21:18:48.276Z,2.77
2023-04-21T21:21:15.568Z,3.00
2023-04-21T21:23:42.962Z,2.53
2023-04-21T21:26:10.733Z,3.37
2023-04-21T21:28:38.079Z,2.80
2023-04-21T21:31:05.407Z,3.07
2023-04-21T21:33:32.769Z,3.53
2023-04-21T21:36:00.111Z,3.10
2023-04-21T21:38:27.446Z,3.57
2023-04-21T21:40:54.822Z,2.93
2023-04-21T21:43:22.587Z,3.53
2023-04-21T21:45:50.353Z,3.50
2023-04-21T21:48:17.762Z,3.50
2023-04-21T21:50:45.299Z,3.20
2023-04-21T21:53:12.662Z,3.57
2023-04-21T21:55:40.066Z,3.43
2023-04-21T21:58:07.425Z,3.50
2023-04-21T22:00:38.439Z,3.30
2023-04-21T22:03:05.323Z,3.80
2023-04-21T22:05:32.784Z,3.60
2023-04-21T22:08:00.146Z,4.00
2023-04-21T22:10:27.495Z,3.57
2023-04-21T22:12:54.830Z,3.30
2023-04-21T22:15:22.231Z,3.80
2023-04-21T22:17:49.625Z,3.60
2023-04-21T22:20:17.771Z,3.53
2023-04-21T22:22:45.328Z,3.83
2023-04-21T22:25:12.683Z,3.30
2023-04-21T22:27:40.117Z,3.30
2023-04-21T22:30:08.559Z,3.57
2023-04-21T22:32:36.081Z,3.33
2023-04-21T22:35:03.729Z,3.90
2023-04-21T22:37:31.097Z,3.60
2023-04-21T22:39:58.701Z,3.40
2023-04-21T22:42:26.657Z,3.27
2023-04-21T22:44:54.054Z,3.03
2023-04-21T22:47:21.460Z,3.27
2023-04-21T22:49:48.829Z,3.20
2023-04-21T22:52:16.190Z,2.90
2023-04-21T22:54:43.509Z,3.20
2023-04-21T22:57:11.156Z,2.53
2023-04-21T22:59:38.813Z,3.20
2023-04-21T23:02:06.392Z,3.20
2023-04-21T23:04:35.159Z,3.60
2023-04-21T23:07:02.996Z,2.60
2023-04-21T23:09:30.329Z,2.90
2023-04-21T23:11:57.709Z,3.13
2023-04-21T23:14:25.032Z,2.70
2023-04-21T23:16:52.455Z,3.20
2023-04-21T23:19:20.652Z,2.87
2023-04-21T23:21:48.039Z,3.57
2023-04-21T23:24:15.438Z,3.60
2023-04-21T23:26:42.808Z,3.03
2023-04-21T23:29:10.263Z,3.40
2023-04-21T23:31:37.817Z,3.90
2023-04-21T23:34:05.204Z,3.73
2023-04-21T23:36:32.587Z,4.30
2023-04-21T23:38:59.911Z,4.23
2023-04-21T23:41:27.570Z,3.90
2023-04-21T23:43:54.944Z,4.47
2023-04-21T23:46:22.401Z,4.60
2023-04-21T23:48:49.732Z,4.70
2023-04-21T23:51:17.124Z,5.57
2023-04-21T23:53:44.543Z,5.63
2023-04-21T23:56:11.990Z,5.20
2023-04-21T23:58:39.444Z,4.70
